createdAt,value
2022-09-27T00:01:05.497Z,3.47
2022-09-27T00:03:33.488Z,4.93
2022-09-27T00:06:09.716Z,4.90
2022-09-27T00:08:37.189Z,5.90
2022-09-27T00:11:05.833Z,9.37
2022-09-27T00:13:33.899Z,9.60
2022-09-27T00:16:03.265Z,7.20
2022-09-27T00:18:31.190Z,5.10
2022-09-27T00:21:04.759Z,6.27
2022-09-27T00:23:31.905Z,8.87
2022-09-27T00:25:59.767Z,9.53
2022-09-27T00:28:27.462Z,4.20
2022-09-27T00:30:55.042Z,4.53
2022-09-27T00:33:22.288Z,7.93
2022-09-27T00:35:49.601Z,4.90
2022-09-27T00:38:16.827Z,11.13
2022-09-27T00:40:44.639Z,6.77
2022-09-27T00:43:25.608Z,6.93
2022-09-27T00:45:58.737Z,6.10
2022-09-27T00:48:28.599Z,7.63
2022-09-27T00:50:58.005Z,6.23
2022-09-27T00:53:31.690Z,9.30
2022-09-27T00:56:01.542Z,10.47
2022-09-27T00:58:34.184Z,6.70
2022-09-27T01:01:03.423Z,7.10
2022-09-27T01:03:36.874Z,12.17
2022-09-27T01:06:05.435Z,10.43
2022-09-27T01:08:32.969Z,10.90
2022-09-27T01:11:09.770Z,9.90
2022-09-27T01:13:44.772Z,12.37
2022-09-27T01:16:15.778Z,8.30
2022-09-27T01:18:51.976Z,7.53
2022-09-27T01:21:48.461Z,7.57
2022-09-27T01:24:15.816Z,10.37
2022-09-27T01:26:55.257Z,6.40
2022-09-27T01:29:34.410Z,8.77
2022-09-27T01:32:08.145Z,7.13
2022-09-27T01:34:41.270Z,8.50
2022-09-27T01:37:20.588Z,7.67
2022-09-27T01:39:52.562Z,9.17
2022-09-27T01:42:23.043Z,8.77
2022-09-27T01:44:59.473Z,6.97
2022-09-27T01:47:29.997Z,7.63
2022-09-27T01:50:01.274Z,9.70
2022-09-27T01:52:32.664Z,6.93
2022-09-27T01:55:01.149Z,9.90
2022-09-27T01:57:32.308Z,9.37
2022-09-27T02:00:02.590Z,5.57
2022-09-27T02:02:32.068Z,8.43
2022-09-27T02:05:01.095Z,7.20
2022-09-27T02:07:30.074Z,8.43
2022-09-27T02:10:07.741Z,8.17
2022-09-27T02:12:39.249Z,4.97
2022-09-27T02:15:06.708Z,17.33
2022-09-27T02:17:34.044Z,12.30
2022-09-27T02:20:01.330Z,6.63
2022-09-27T02:22:35.175Z,12.40
2022-09-27T02:25:11.874Z,5.43
2022-09-27T02:27:48.373Z,4.27
2022-09-27T02:30:17.430Z,5.53
2022-09-27T02:32:44.838Z,8.73
2022-09-27T02:35:27.557Z,7.60
2022-09-27T02:37:55.772Z,6.97
2022-09-27T02:40:23.824Z,5.97
2022-09-27T02:42:51.518Z,7.93
2022-09-27T02:45:19.784Z,9.30
2022-09-27T02:48:03.394Z,4.87
2022-09-27T02:50:55.836Z,8.43
2022-09-27T02:53:31.435Z,7.20
2022-09-27T02:56:19.900Z,11.17
2022-09-27T02:58:55.212Z,6.27
2022-09-27T03:01:32.798Z,7.27
2022-09-27T03:04:10.248Z,6.53
2022-09-27T03:06:41.189Z,9.70
2022-09-27T03:09:21.266Z,5.20
2022-09-27T03:11:49.159Z,10.53
2022-09-27T03:14:16.884Z,10.40
2022-09-27T03:16:43.800Z,9.47
2022-09-27T03:19:11.115Z,9.03
2022-09-27T03:21:39.259Z,12.23
2022-09-27T03:24:06.547Z,7.10
2022-09-27T03:26:33.872Z,6.67
2022-09-27T03:29:10.057Z,12.33
2022-09-27T03:31:39.588Z,7.70
2022-09-27T03:34:06.820Z,10.53
2022-09-27T03:36:34.079Z,7.50
2022-09-27T03:39:01.293Z,5.93
2022-09-27T03:41:28.492Z,6.23
2022-09-27T03:43:57.941Z,7.53
2022-09-27T03:46:25.234Z,5.40
2022-09-27T03:48:52.604Z,5.67
2022-09-27T03:51:19.792Z,9.07
2022-09-27T03:53:47.031Z,6.07
2022-09-27T03:56:16.158Z,5.87
2022-09-27T03:58:47.166Z,7.50
2022-09-27T04:01:15.148Z,5.70
2022-09-27T04:03:42.415Z,9.47
2022-09-27T04:06:09.585Z,4.50
2022-09-27T04:08:36.778Z,4.47
2022-09-27T04:11:03.976Z,5.67
2022-09-27T04:13:31.199Z,5.57
2022-09-27T04:15:58.454Z,4.10
2022-09-27T04:18:25.723Z,7.57
2022-09-27T04:20:53.754Z,5.30
2022-09-27T04:23:21.288Z,9.03
2022-09-27T04:25:48.498Z,6.57
2022-09-27T04:28:16.041Z,6.57
2022-09-27T04:30:43.282Z,7.13
2022-09-27T04:33:10.471Z,4.43
2022-09-27T04:35:56.454Z,12.73
2022-09-27T04:38:24.078Z,4.80
2022-09-27T04:40:52.158Z,9.40
2022-09-27T04:43:20.176Z,5.47
2022-09-27T04:45:47.396Z,4.17
2022-09-27T04:48:14.711Z,4.60
2022-09-27T04:50:42.462Z,7.17
2022-09-27T04:53:15.967Z,5.97
2022-09-27T04:55:47.393Z,5.37
2022-09-27T04:58:14.764Z,6.30
2022-09-27T05:00:45.612Z,6.63
2022-09-27T05:03:12.761Z,3.43
2022-09-27T05:05:39.922Z,8.00
2022-09-27T05:08:07.064Z,4.53
2022-09-27T05:10:34.352Z,2.90
2022-09-27T05:13:02.515Z,6.83
2022-09-27T05:15:29.740Z,6.63
2022-09-27T05:17:58.246Z,7.10
2022-09-27T05:20:25.782Z,4.60
2022-09-27T05:22:53.195Z,3.60
2022-09-27T05:25:20.536Z,5.77
2022-09-27T05:27:47.954Z,7.37
2022-09-27T05:30:18.224Z,6.40
2022-09-27T05:32:47.413Z,7.77
2022-09-27T05:35:14.875Z,2.77
2022-09-27T05:37:42.040Z,2.83
2022-09-27T05:40:29.284Z,6.57
2022-09-27T05:43:01.328Z,2.40
2022-09-27T05:45:28.840Z,4.03
2022-09-27T05:47:59.223Z,4.73
2022-09-27T05:50:27.197Z,13.57
2022-09-27T05:52:54.861Z,2.13
2022-09-27T05:55:46.964Z,3.93
2022-09-27T05:58:16.170Z,3.30
2022-09-27T06:00:44.057Z,5.37
2022-09-27T06:03:15.130Z,6.87
2022-09-27T06:05:42.400Z,5.43
2022-09-27T06:08:10.590Z,8.93
2022-09-27T06:10:38.253Z,8.53
2022-09-27T06:13:06.983Z,6.07
2022-09-27T06:15:44.086Z,7.40
2022-09-27T06:18:11.496Z,12.97
2022-09-27T06:20:39.424Z,15.77
2022-09-27T06:23:16.377Z,14.47
2022-09-27T06:25:43.710Z,12.03
2022-09-27T06:28:21.548Z,13.63
2022-09-27T06:30:50.643Z,12.40
2022-09-27T06:33:19.643Z,11.17
2022-09-27T06:35:47.407Z,13.17
2022-09-27T06:38:18.402Z,10.47
2022-09-27T06:40:46.003Z,11.30
2022-09-27T06:43:15.999Z,10.20
2022-09-27T06:45:43.434Z,10.10
2022-09-27T06:48:12.598Z,11.90
2022-09-27T06:50:40.675Z,8.07
2022-09-27T06:53:10.712Z,10.07
2022-09-27T06:55:38.474Z,13.13
2022-09-27T06:58:24.731Z,3.10
2022-09-27T07:00:53.411Z,11.53
2022-09-27T07:03:22.983Z,10.27
2022-09-27T07:06:16.548Z,12.83
2022-09-27T07:08:43.955Z,15.67
2022-09-27T07:11:11.165Z,15.67
2022-09-27T07:13:42.903Z,15.63
2022-09-27T07:16:13.709Z,18.73
2022-09-27T07:18:41.687Z,22.17
2022-09-27T07:21:09.227Z,12.30
2022-09-27T07:23:37.185Z,14.47
2022-09-27T07:26:05.227Z,13.90
2022-09-27T07:28:32.432Z,13.13
2022-09-27T07:30:59.765Z,7.57
2022-09-27T07:33:27.015Z,6.23
2022-09-27T07:35:54.396Z,6.63
2022-09-27T07:38:21.557Z,7.43
2022-09-27T07:40:48.882Z,6.37
2022-09-27T07:43:16.322Z,4.10
2022-09-27T07:45:43.583Z,4.00
2022-09-27T07:48:13.554Z,3.73
2022-09-27T07:50:43.239Z,5.53
2022-09-27T07:53:13.341Z,3.30
2022-09-27T07:55:40.895Z,3.33
2022-09-27T07:58:09.664Z,4.40
2022-09-27T08:00:38.372Z,2.77
2022-09-27T08:03:06.961Z,2.93
2022-09-27T08:05:35.264Z,2.97
2022-09-27T08:08:05.937Z,1.87
2022-09-27T08:10:35.019Z,1.47
2022-09-27T08:13:06.038Z,1.73
2022-09-27T08:15:36.012Z,2.60
2022-09-27T08:18:03.247Z,2.47
2022-09-27T08:20:30.455Z,4.63
2022-09-27T08:22:57.976Z,2.20
2022-09-27T08:25:25.291Z,2.87
2022-09-27T08:27:56.743Z,1.17
2022-09-27T08:30:24.133Z,1.30
2022-09-27T08:32:55.291Z,4.13
2022-09-27T08:35:22.474Z,4.00
2022-09-27T08:37:56.366Z,1.30
2022-09-27T08:40:24.837Z,1.33
2022-09-27T08:43:00.866Z,4.47
2022-09-27T08:45:39.152Z,4.27
2022-09-27T08:48:07.094Z,2.83
2022-09-27T08:50:40.420Z,4.13
2022-09-27T08:53:13.341Z,4.47
2022-09-27T08:55:50.535Z,14.10
2022-09-27T08:58:26.419Z,6.43
2022-09-27T09:00:58.341Z,6.77
2022-09-27T09:03:29.807Z,5.43
2022-09-27T09:06:02.821Z,5.37
2022-09-27T09:08:45.293Z,4.63
2022-09-27T09:11:33.567Z,3.20
2022-09-27T09:14:10.242Z,6.93
2022-09-27T09:16:47.434Z,9.23
2022-09-27T09:19:33.094Z,12.13
2022-09-27T09:22:14.950Z,5.13
2022-09-27T09:24:42.129Z,2.77
2022-09-27T09:27:24.033Z,3.53
2022-09-27T09:30:05.431Z,7.47
2022-09-27T09:32:32.642Z,8.63
2022-09-27T09:35:04.983Z,16.00
2022-09-27T09:37:44.436Z,11.47
2022-09-27T09:40:22.191Z,11.40
2022-09-27T09:42:55.721Z,8.10
2022-09-27T09:45:23.033Z,18.10
2022-09-27T09:47:56.302Z,11.63
2022-09-27T09:50:27.526Z,10.80
2022-09-27T09:53:30.257Z,8.00
2022-09-27T09:56:01.940Z,9.23
2022-09-27T09:58:41.593Z,6.30
2022-09-27T10:01:19.269Z,3.47
2022-09-27T10:03:47.143Z,2.93
2022-09-27T10:06:18.667Z,12.10
2022-09-27T10:08:46.060Z,5.77
2022-09-27T10:11:33.548Z,8.80
2022-09-27T10:14:00.935Z,5.33
2022-09-27T10:16:29.431Z,3.77
2022-09-27T10:18:59.421Z,3.37
2022-09-27T10:21:28.859Z,4.60
2022-09-27T10:24:18.599Z,3.10
2022-09-27T10:26:47.625Z,3.60
2022-09-27T10:29:17.696Z,2.50
2022-09-27T10:31:47.842Z,2.70
2022-09-27T10:34:41.213Z,2.93
2022-09-27T10:37:17.437Z,2.87
2022-09-27T10:39:46.404Z,11.30
2022-09-27T10:42:22.828Z,3.30
2022-09-27T10:44:50.162Z,5.87
2022-09-27T10:47:23.086Z,1.60
2022-09-27T10:49:53.765Z,5.27
2022-09-27T10:52:22.272Z,3.20
2022-09-27T10:55:00.934Z,5.17
2022-09-27T10:57:29.006Z,2.77
2022-09-27T10:59:57.625Z,7.50
2022-09-27T11:02:27.901Z,5.07
2022-09-27T11:05:04.051Z,3.97
2022-09-27T11:07:31.372Z,2.77
2022-09-27T11:10:05.418Z,3.63
2022-09-27T11:12:35.530Z,3.87
2022-09-27T11:15:05.786Z,3.40
2022-09-27T11:17:48.450Z,4.33
2022-09-27T11:20:19.178Z,4.67
2022-09-27T11:22:58.628Z,5.60
2022-09-27T11:25:39.798Z,4.23
2022-09-27T11:28:16.223Z,4.90
2022-09-27T11:30:43.422Z,3.70
2022-09-27T11:33:16.761Z,2.93
2022-09-27T11:36:13.847Z,4.93
2022-09-27T11:39:02.669Z,6.20
2022-09-27T11:41:30.223Z,6.03
2022-09-27T11:44:06.266Z,3.47
2022-09-27T11:46:41.371Z,4.10
2022-09-27T11:49:24.273Z,4.60
2022-09-27T11:52:03.789Z,5.23
2022-09-27T11:54:49.746Z,3.60
2022-09-27T11:57:28.760Z,4.50
2022-09-27T12:00:19.264Z,4.67
2022-09-27T12:02:50.517Z,7.10
2022-09-27T12:05:37.377Z,6.73
2022-09-27T12:08:10.877Z,5.43
2022-09-27T12:10:38.892Z,5.83
2022-09-27T12:13:13.334Z,5.07
2022-09-27T12:15:43.041Z,5.33
2022-09-27T12:18:29.367Z,5.73
2022-09-27T12:20:56.830Z,6.50
2022-09-27T12:23:46.569Z,6.33
2022-09-27T12:26:16.674Z,7.13
2022-09-27T12:28:43.873Z,5.80
2022-09-27T12:31:28.993Z,4.80
2022-09-27T12:34:05.322Z,4.53
2022-09-27T12:36:38.359Z,6.60
2022-09-27T12:39:24.530Z,4.17
2022-09-27T12:42:02.095Z,2.10
2022-09-27T12:44:32.629Z,2.10
2022-09-27T12:47:08.892Z,3.87
2022-09-27T12:49:57.648Z,3.43
2022-09-27T12:52:32.557Z,2.73
2022-09-27T12:55:16.127Z,5.20
2022-09-27T12:57:43.267Z,2.40
2022-09-27T13:00:31.614Z,4.43
2022-09-27T13:03:15.787Z,2.47
2022-09-27T13:05:52.247Z,2.87
2022-09-27T13:08:34.545Z,2.80
2022-09-27T13:11:17.089Z,2.73
2022-09-27T13:13:44.538Z,2.77
2022-09-27T13:16:12.302Z,2.83
2022-09-27T13:18:52.000Z,2.30
2022-09-27T13:21:38.019Z,1.77
2022-09-27T13:24:25.133Z,2.03
2022-09-27T13:26:53.011Z,1.40
2022-09-27T13:29:25.390Z,2.80
2022-09-27T13:31:55.418Z,1.90
2022-09-27T13:34:39.302Z,1.83
2022-09-27T13:37:23.206Z,3.53
2022-09-27T13:39:50.425Z,1.70
2022-09-27T13:42:30.144Z,2.03
2022-09-27T13:45:16.153Z,0.80
2022-09-27T13:47:47.016Z,1.67
2022-09-27T13:50:26.631Z,1.25
2022-09-27T13:53:18.978Z,1.02
2022-09-27T13:55:46.301Z,1.58
2022-09-27T13:58:19.749Z,1.17
2022-09-27T14:00:50.131Z,0.73
2022-09-27T14:03:53.615Z,0.93
2022-09-27T14:06:23.442Z,1.48
2022-09-27T14:08:53.281Z,1.38
2022-09-27T14:11:24.616Z,0.70
2022-09-27T14:13:52.993Z,0.68
2022-09-27T14:16:21.323Z,1.08
2022-09-27T14:18:55.112Z,0.93
2022-09-27T14:21:33.813Z,0.75
2022-09-27T14:24:19.918Z,1.17
2022-09-27T14:26:47.107Z,4.57
2022-09-27T14:29:22.070Z,1.83
2022-09-27T14:32:04.325Z,2.83
2022-09-27T14:34:31.630Z,3.27
2022-09-27T14:37:18.001Z,1.10
2022-09-27T14:39:46.446Z,1.67
2022-09-27T14:42:21.651Z,2.17
2022-09-27T14:44:49.970Z,0.80
2022-09-27T14:47:24.836Z,1.73
2022-09-27T14:49:55.170Z,2.83
2022-09-27T14:52:27.778Z,1.87
2022-09-27T14:55:15.817Z,3.93
2022-09-27T14:57:47.923Z,1.10
2022-09-27T15:00:20.866Z,1.30
2022-09-27T15:02:48.996Z,2.73
2022-09-27T15:05:19.540Z,6.77
2022-09-27T15:07:47.322Z,3.33
2022-09-27T15:10:17.203Z,4.40
2022-09-27T15:12:48.841Z,1.47
2022-09-27T15:15:19.593Z,5.20
2022-09-27T15:17:47.238Z,3.17
2022-09-27T15:20:25.013Z,2.00
2022-09-27T15:22:52.985Z,6.50
2022-09-27T15:25:32.406Z,3.10
2022-09-27T15:28:01.183Z,4.77
2022-09-27T15:30:38.654Z,4.70
2022-09-27T15:33:06.309Z,2.30
2022-09-27T15:35:34.975Z,5.03
2022-09-27T15:38:14.833Z,7.37
2022-09-27T15:40:51.309Z,5.97
2022-09-27T15:43:23.007Z,3.87
2022-09-27T15:45:51.345Z,4.30
2022-09-27T15:48:20.139Z,4.50
2022-09-27T15:50:48.419Z,2.50
2022-09-27T15:53:33.999Z,2.10
2022-09-27T15:56:02.090Z,1.83
2022-09-27T15:58:29.541Z,3.47
2022-09-27T16:01:02.720Z,3.90
2022-09-27T16:03:30.169Z,1.83
2022-09-27T16:05:57.995Z,1.40
2022-09-27T16:08:25.654Z,3.07
2022-09-27T16:10:55.194Z,5.40
2022-09-27T16:13:22.769Z,1.73
2022-09-27T16:15:50.678Z,1.43
2022-09-27T16:18:18.122Z,2.93
2022-09-27T16:20:48.684Z,2.17
2022-09-27T16:23:15.960Z,4.33
2022-09-27T16:25:43.220Z,3.67
2022-09-27T16:28:11.354Z,4.03
2022-09-27T16:30:38.706Z,4.33
2022-09-27T16:33:05.935Z,4.53
2022-09-27T16:35:33.169Z,4.57
2022-09-27T16:38:00.329Z,3.70
2022-09-27T16:40:28.215Z,3.03
2022-09-27T16:42:55.604Z,3.23
2022-09-27T16:45:22.804Z,2.60
2022-09-27T16:47:50.062Z,2.97
2022-09-27T16:50:36.352Z,5.90
2022-09-27T16:53:05.282Z,2.27
2022-09-27T16:55:32.518Z,3.93
2022-09-27T16:58:00.201Z,4.37
2022-09-27T17:00:27.833Z,3.73
2022-09-27T17:02:55.226Z,4.00
2022-09-27T17:05:23.146Z,1.97
2022-09-27T17:07:51.623Z,4.77
2022-09-27T17:10:19.519Z,3.53
2022-09-27T17:12:49.790Z,4.50
2022-09-27T17:15:20.509Z,5.37
2022-09-27T17:17:51.139Z,3.83
2022-09-27T17:20:18.394Z,4.70
2022-09-27T17:22:48.548Z,3.60
2022-09-27T17:25:16.068Z,2.60
2022-09-27T17:27:43.210Z,3.53
2022-09-27T17:30:10.634Z,7.30
2022-09-27T17:32:38.598Z,4.70
2022-09-27T17:35:06.782Z,4.80
2022-09-27T17:37:33.925Z,4.43
2022-09-27T17:40:01.105Z,4.63
2022-09-27T17:42:28.903Z,8.83
2022-09-27T17:44:56.052Z,5.63
2022-09-27T17:47:42.131Z,4.77
2022-09-27T17:50:27.069Z,3.47
2022-09-27T17:52:54.929Z,6.87
2022-09-27T17:55:22.325Z,4.60
2022-09-27T17:57:49.955Z,6.07
2022-09-27T18:00:17.897Z,6.00
2022-09-27T18:02:48.352Z,5.47
2022-09-27T18:05:16.231Z,6.57
2022-09-27T18:07:43.446Z,5.93
2022-09-27T18:10:11.139Z,8.37
2022-09-27T18:12:39.628Z,5.20
2022-09-27T18:15:07.348Z,4.60
2022-09-27T18:17:36.329Z,7.10
2022-09-27T18:20:03.807Z,5.80
2022-09-27T18:22:31.260Z,12.07
2022-09-27T18:24:58.599Z,4.80
2022-09-27T18:27:25.851Z,4.67
2022-09-27T18:29:53.953Z,5.73
2022-09-27T18:32:21.383Z,7.97
2022-09-27T18:34:48.732Z,7.17
2022-09-27T18:37:18.954Z,5.73
2022-09-27T18:39:49.343Z,7.73
2022-09-27T18:42:19.264Z,7.13
2022-09-27T18:44:49.555Z,5.33
2022-09-27T18:47:16.778Z,4.87
2022-09-27T18:49:43.992Z,4.90
2022-09-27T18:52:11.878Z,4.37
2022-09-27T18:54:41.361Z,5.33
2022-09-27T18:57:08.627Z,4.30
2022-09-27T18:59:35.849Z,3.70
2022-09-27T19:02:03.179Z,6.20
2022-09-27T19:04:30.575Z,3.40
2022-09-27T19:06:57.957Z,5.90
2022-09-27T19:09:26.937Z,4.40
2022-09-27T19:11:54.463Z,4.13
2022-09-27T19:14:22.736Z,7.17
2022-09-27T19:16:50.417Z,7.77
2022-09-27T19:19:18.362Z,6.47
2022-09-27T19:21:46.119Z,6.67
2022-09-27T19:24:14.316Z,10.33
2022-09-27T19:26:41.883Z,6.13
2022-09-27T19:29:09.211Z,7.50
2022-09-27T19:31:36.451Z,4.13
2022-09-27T19:34:07.413Z,7.17
2022-09-27T19:36:34.674Z,8.07
2022-09-27T19:39:02.364Z,10.57
2022-09-27T19:41:29.962Z,17.93
2022-09-27T19:43:57.741Z,5.43
2022-09-27T19:46:25.989Z,9.30
2022-09-27T19:48:53.240Z,5.53
2022-09-27T19:51:22.149Z,7.13
2022-09-27T19:53:49.977Z,7.33
2022-09-27T19:56:17.635Z,6.27
2022-09-27T19:58:45.053Z,5.70
2022-09-27T20:01:13.684Z,8.80
2022-09-27T20:03:41.890Z,7.10
2022-09-27T20:06:11.427Z,6.43
2022-09-27T20:08:38.959Z,6.83
2022-09-27T20:11:07.797Z,4.87
2022-09-27T20:13:35.807Z,7.33
2022-09-27T20:16:07.334Z,7.67
2022-09-27T20:18:35.214Z,11.60
2022-09-27T20:21:03.535Z,8.37
2022-09-27T20:23:32.866Z,6.73
2022-09-27T20:26:01.236Z,7.30
2022-09-27T20:28:28.854Z,9.47
2022-09-27T20:31:05.633Z,23.30
2022-09-27T20:33:42.303Z,8.57
2022-09-27T20:36:10.758Z,9.13
2022-09-27T20:38:37.964Z,13.23
2022-09-27T20:41:06.197Z,7.20
2022-09-27T20:43:33.823Z,18.10
2022-09-27T20:46:02.193Z,10.30
2022-09-27T20:48:29.450Z,7.37
2022-09-27T20:51:03.790Z,7.80
2022-09-27T20:53:31.978Z,3.33
2022-09-27T20:56:00.114Z,3.10
2022-09-27T20:58:30.570Z,2.33
2022-09-27T21:00:59.509Z,4.37
2022-09-27T21:03:26.738Z,8.23
2022-09-27T21:05:54.945Z,4.43
2022-09-27T21:08:22.263Z,4.37
2022-09-27T21:10:52.640Z,2.97
2022-09-27T21:13:20.817Z,5.23
2022-09-27T21:15:48.619Z,3.23
2022-09-27T21:18:15.969Z,3.87
2022-09-27T21:20:43.146Z,3.10
2022-09-27T21:23:10.315Z,1.77
2022-09-27T21:25:37.501Z,3.90
2022-09-27T21:28:04.698Z,5.50
2022-09-27T21:30:31.891Z,4.47
2022-09-27T21:32:59.119Z,6.87
2022-09-27T21:35:26.272Z,8.07
2022-09-27T21:37:56.408Z,5.50
2022-09-27T21:40:23.635Z,6.17
2022-09-27T21:42:55.594Z,7.43
2022-09-27T21:45:24.739Z,6.27
2022-09-27T21:47:51.903Z,6.30
2022-09-27T21:50:19.140Z,4.37
2022-09-27T21:52:46.455Z,9.50
2022-09-27T21:55:13.626Z,4.40
2022-09-27T21:57:40.918Z,7.93
2022-09-27T22:00:08.638Z,4.87
2022-09-27T22:02:36.016Z,5.33
2022-09-27T22:05:03.301Z,2.87
2022-09-27T22:07:30.484Z,4.23
2022-09-27T22:09:57.671Z,4.43
2022-09-27T22:12:24.930Z,4.70
2022-09-27T22:14:52.443Z,4.83
2022-09-27T22:17:19.705Z,3.80
2022-09-27T22:19:46.841Z,6.70
2022-09-27T22:22:14.052Z,5.37
2022-09-27T22:24:41.284Z,5.23
2022-09-27T22:27:08.499Z,9.33
2022-09-27T22:29:35.679Z,5.97
2022-09-27T22:32:02.847Z,5.93
2022-09-27T22:34:31.438Z,6.53
2022-09-27T22:37:00.838Z,6.20
2022-09-27T22:39:29.016Z,8.57
2022-09-27T22:41:56.326Z,5.90
2022-09-27T22:44:23.509Z,6.10
2022-09-27T22:46:50.775Z,9.53
2022-09-27T22:49:18.051Z,6.97
2022-09-27T22:51:45.605Z,5.77
2022-09-27T22:54:12.760Z,7.30
2022-09-27T22:56:39.892Z,6.40
2022-09-27T22:59:07.046Z,7.10
2022-09-27T23:01:36.747Z,5.53
2022-09-27T23:04:04.011Z,5.73
2022-09-27T23:06:33.019Z,6.10
2022-09-27T23:09:01.344Z,6.00
2022-09-27T23:11:28.528Z,5.97
2022-09-27T23:13:55.647Z,7.73
2022-09-27T23:16:28.188Z,4.07
2022-09-27T23:18:58.841Z,7.97
2022-09-27T23:21:27.144Z,8.57
2022-09-27T23:23:55.301Z,5.93
2022-09-27T23:26:25.090Z,6.17
2022-09-27T23:28:53.675Z,5.87
2022-09-27T23:31:22.254Z,4.67
2022-09-27T23:33:51.050Z,7.80
2022-09-27T23:36:19.672Z,5.97
2022-09-27T23:38:48.427Z,7.67
2022-09-27T23:41:16.793Z,6.40
2022-09-27T23:43:44.609Z,6.80
2022-09-27T23:46:12.367Z,5.57
2022-09-27T23:48:39.914Z,5.13
2022-09-27T23:51:10.622Z,6.20
2022-09-27T23:53:38.216Z,4.27
2022-09-27T23:56:06.759Z,4.40
2022-09-27T23:58:38.068Z,5.50
